NCAR-RAP Real-Time Weather Data

Output produced by METARs form (06 May 2021  15:11 UTC)
found at http://weather.rap.ucar.edu/surface/
 
KICR 061453Z AUTO 25006KT 10SM CLR 13/M02 A3032 RMK AO2 SLP271 T01331022 50000
KICR 061353Z AUTO 24005KT 10SM CLR 08/03 A3033 RMK AO2 SLP279 T00780033
KICR 061253Z AUTO 23005KT 10SM CLR 04/01 A3032 RMK AO2 SLP279 T00390006
KICR 061153Z AUTO 22005KT 10SM CLR 01/M01 A3032 RMK AO2 SLP276 70021 T00111011 10033 20000 53001
KICR 061053Z AUTO 22006KT 10SM CLR 00/M02 A3031 RMK AO2 SLP274 T00001022
KICR 060953Z AUTO 21006KT 9SM CLR 01/M02 A3031 RMK AO2 SLP271 T00061017
KICR 060853Z AUTO 23005KT 10SM CLR 01/M01 A3031 RMK AO2 SLP272 T00111011 51002
KICR 060753Z AUTO 23005KT 8SM CLR 00/M02 A3031 RMK AO2 SLP272 T00001017
KICR 060653Z AUTO 24005KT 9SM CLR 01/M01 A3031 RMK AO2 SLP273 T00111006
KICR 060553Z AUTO 30003KT 10SM CLR 03/00 A3030 RMK AO2 SLP266 T00330000 10133 20033 401830033 51018
KICR 060453Z AUTO 36003KT 10SM CLR 05/01 A3029 RMK AO2 SLP261 T00500011
KICR 060353Z AUTO 01006KT 10SM CLR 05/02 A3028 RMK AO2 SLP260 T00500017
KICR 060253Z AUTO 02007KT 10SM CLR 07/02 A3025 RMK AO2 SLP248 T00670017 51029
KICR 060153Z AUTO 01011KT 10SM CLR 08/02 A3023 RMK AO2 SLP242 T00780022
KICR 060053Z AUTO 01012KT 10SM BKN037 10/03 A3020 RMK AO2 SLP232 T01000033